Map

Track Data

SID SEASON NUMBER BASIN SUBBASIN NAME ISO_TIME NATURE LAT LON WMO_WIND WMO_PRES WMO_AGENCY TRACK_TYPE DIST2LAND LANDFALL IFLAG USA_AGENCY USA_ATCF_ID USA_LAT USA_LON USA_RECORD USA_STATUS USA_WIND USA_PRES USA_SSHS USA_R34_NE USA_R34_SE USA_R34_SW USA_R34_NW USA_R50_NE USA_R50_SE USA_R50_SW USA_R50_NW USA_R64_NE USA_R64_SE USA_R64_SW USA_R64_NW USA_POCI USA_ROCI USA_RMW USA_EYE TOKYO_LAT TOKYO_LON TOKYO_GRADE TOKYO_WIND TOKYO_PRES TOKYO_R50_DIR TOKYO_R50_LONG TOKYO_R50_SHORT TOKYO_R30_DIR TOKYO_R30_LONG TOKYO_R30_SHORT TOKYO_LAND CMA_LAT CMA_LON CMA_CAT CMA_WIND CMA_PRES HKO_LAT HKO_LON HKO_CAT HKO_WIND HKO_PRES NEWDELHI_LAT NEWDELHI_LON NEWDELHI_GRADE NEWDELHI_WIND NEWDELHI_PRES NEWDELHI_CI NEWDELHI_DP NEWDELHI_POCI REUNION_LAT REUNION_LON REUNION_TYPE REUNION_WIND REUNION_PRES REUNION_TNUM REUNION_CI REUNION_RMW REUNION_R34_NE REUNION_R34_SE REUNION_R34_SW REUNION_R34_NW REUNION_R50_NE REUNION_R50_SE REUNION_R50_SW REUNION_R50_NW REUNION_R64_NE REUNION_R64_SE REUNION_R64_SW REUNION_R64_NW BOM_LAT BOM_LON BOM_TYPE BOM_WIND BOM_PRES BOM_TNUM BOM_CI BOM_RMW BOM_R34_NE BOM_R34_SE BOM_R34_SW BOM_R34_NW BOM_R50_NE BOM_R50_SE BOM_R50_SW BOM_R50_NW BOM_R64_NE BOM_R64_SE BOM_R64_SW BOM_R64_NW BOM_ROCI BOM_POCI BOM_EYE BOM_POS_METHOD BOM_PRES_METHOD NADI_LAT NADI_LON NADI_CAT NADI_WIND NADI_PRES WELLINGTON_LAT WELLINGTON_LON WELLINGTON_WIND WELLINGTON_PRES DS824_LAT DS824_LON DS824_STAGE DS824_WIND DS824_PRES TD9636_LAT TD9636_LON TD9636_STAGE TD9636_WIND TD9636_PRES TD9635_LAT TD9635_LON TD9635_WIND TD9635_PRES TD9635_ROCI NEUMANN_LAT NEUMANN_LON NEUMANN_CLASS NEUMANN_WIND NEUMANN_PRES MLC_LAT MLC_LON MLC_CLASS MLC_WIND MLC_PRES USA_GUST BOM_GUST BOM_GUST_PER REUNION_GUST REUNION_GUST_PER USA_SEAHGT USA_SEARAD_NE USA_SEARAD_SE USA_SEARAD_SW USA_SEARAD_NW STORM_SPEED STORM_DIR
1898216N18131 1898 25 WP MM NOT_NAMED 1898-08-03 16:00:00 NR 18.3000 130.700 main 833 795 __________O___ -1 18.3000 130.700 7 27 299
1898216N18131 1898 25 WP MM NOT_NAMED 1898-08-03 18:00:00 NR 18.7269 129.877 main 795 680 __________P___ -1 18.7269 129.877 7 26 299
1898216N18131 1898 25 WP MM NOT_NAMED 1898-08-03 21:00:00 NR 19.3472 128.689 main 680 581 __________P___ -1 19.3472 128.689 7 24 300
1898216N18131 1898 25 WP MM NOT_NAMED 1898-08-04 00:00:00 NR 19.9254 127.637 main 581 522 __________P___ -1 19.9254 127.637 7 21 302
1898216N18131 1898 25 WP MM NOT_NAMED 1898-08-04 03:00:00 NR 20.4436 126.810 main 522 513 __________P___ -1 20.4436 126.810 7 18 305
1898216N18131 1898 25 WP MM NOT_NAMED 1898-08-04 04:00:00 NR 20.6000 126.600 main 513 497 __________O___ -1 20.6000 126.600 7 13 312
1898216N18131 1898 25 WP MM NOT_NAMED 1898-08-04 06:00:00 NR 20.8869 126.289 main 503 494 __________P___ -1 20.8869 126.289 7 10 322
1898216N18131 1898 25 WP MM NOT_NAMED 1898-08-04 09:00:00 NR 21.2635 126.039 main 504 501 __________P___ -1 21.2635 126.039 7 8 336
1898216N18131 1898 25 WP MM NOT_NAMED 1898-08-04 12:00:00 NR 21.5945 125.952 main 501 481 __________P___ -1 21.5945 125.952 7 7 350
1898216N18131 1898 25 WP MM NOT_NAMED 1898-08-04 15:00:00 NR 21.9003 125.919 main 481 478 __________P___ -1 21.9003 125.919 7 6 352
1898216N18131 1898 25 WP MM NOT_NAMED 1898-08-04 16:00:00 NR 22.0000 125.900 main 478 462 __________O___ -1 22.0000 125.900 3 7 337
1898216N18131 1898 25 WP MM NOT_NAMED 1898-08-04 18:00:00 NR 22.2166 125.775 main 462 435 __________P___ -1 22.2166 125.775 3 7 331
1898216N18131 1898 25 WP MM NOT_NAMED 1898-08-04 21:00:00 NR 22.5291 125.581 main 435 403 __________P___ -1 22.5291 125.581 3 7 329
1898216N18131 1898 25 WP MM NOT_NAMED 1898-08-05 00:00:00 NR 22.8266 125.380 main 403 370 __________P___ -1 22.8266 125.380 3 7 327
1898216N18131 1898 25 WP MM NOT_NAMED 1898-08-05 03:00:00 NR 23.1091 125.171 main 370 356 __________P___ -1 23.1091 125.171 3 7 326
1898216N18131 1898 25 WP MM NOT_NAMED 1898-08-05 04:00:00 NR 23.2000 125.100 main 356 337 __________O___ -1 23.2000 125.100 4 7 325
1898216N18131 1898 25 WP MM NOT_NAMED 1898-08-05 06:00:00 NR 23.3753 124.968 main 337 311 __________P___ -1 23.3753 124.968 4 6 324
1898216N18131 1898 25 WP MM NOT_NAMED 1898-08-05 09:00:00 NR 23.6256 124.765 main 311 271 __________P___ -1 23.6256 124.765 4 6 322
1898216N18131 1898 25 WP MM NOT_NAMED 1898-08-05 12:00:00 NR 23.8692 124.544 main 271 247 __________P___ -1 23.8692 124.544 4 7 319
1898216N18131 1898 25 WP MM NOT_NAMED 1898-08-05 15:00:00 NR 24.1156 124.293 main 247 235 __________P___ -1 24.1156 124.293 4 7 316
1898216N18131 1898 25 WP MM NOT_NAMED 1898-08-05 16:00:00 NR 24.2000 124.200 main 235 212 __________O___ -1 24.2000 124.200 4 8 315
1898216N18131 1898 25 WP MM NOT_NAMED 1898-08-05 18:00:00 NR 24.3988 123.985 main 212 164 __________P___ -1 24.3988 123.985 4 9 314
1898216N18131 1898 25 WP MM NOT_NAMED 1898-08-05 21:00:00 NR 24.7038 123.631 main 164 130 __________P___ -1 24.7038 123.631 4 9 312
1898216N18131 1898 25 WP MM NOT_NAMED 1898-08-06 00:00:00 NR 24.9915 123.263 main 130 93 __________P___ -1 24.9915 123.263 4 8 309
1898216N18131 1898 25 WP MM NOT_NAMED 1898-08-06 03:00:00 NR 25.2340 122.910 main 93 87 __________P___ -1 25.2340 122.910 4 8 306
1898216N18131 1898 25 WP MM NOT_NAMED 1898-08-06 04:00:00 NR 25.3000 122.800 main 87 75 __________O___ -1 25.3000 122.800 4 6 302
1898216N18131 1898 25 WP MM NOT_NAMED 1898-08-06 06:00:00 NR 25.3979 122.615 main 75 67 __________P___ -1 25.3979 122.615 4 5 296
1898216N18131 1898 25 WP MM NOT_NAMED 1898-08-06 09:00:00 NR 25.4947 122.364 main 68 56 __________P___ -1 25.4947 122.364 4 5 289
1898216N18131 1898 25 WP MM NOT_NAMED 1898-08-06 12:00:00 NR 25.5508 122.127 main 67 53 __________P___ -1 25.5508 122.127 4 4 282
1898216N18131 1898 25 WP MM NOT_NAMED 1898-08-06 15:00:00 NR 25.5880 121.885 main 53 48 __________P___ -1 25.5880 121.885 4 4 279
1898216N18131 1898 25 WP MM NOT_NAMED 1898-08-06 16:00:00 NR 25.6000 121.800 main 48 44 __________O___ -1 25.6000 121.800 4 5 283
1898216N18131 1898 25 WP MM NOT_NAMED 1898-08-06 18:00:00 NR 25.6471 121.591 main 44 55 __________P___ -1 25.6471 121.591 4 6 283
1898216N18131 1898 25 WP MM NOT_NAMED 1898-08-06 21:00:00 NR 25.7116 121.263 main 56 59 __________P___ -1 25.7116 121.263 4 6 281
1898216N18131 1898 25 WP MM NOT_NAMED 1898-08-07 00:00:00 NR 25.7629 120.948 main 83 83 __________P___ -1 25.7629 120.948 4 5 279
1898216N18131 1898 25 WP MM NOT_NAMED 1898-08-07 03:00:00 NR 25.7947 120.676 main 92 90 __________P___ -1 25.7947 120.676 4 5 277
1898216N18131 1898 25 WP MM NOT_NAMED 1898-08-07 04:00:00 NR 25.8000 120.600 main 90 80 __________O___ -1 25.8000 120.600 4 3 268
1898216N18131 1898 25 WP MM NOT_NAMED 1898-08-07 06:00:00 NR 25.7897 120.490 main 80 70 __________P___ -1 25.7897 120.490 4 2 257
1898216N18131 1898 25 WP MM NOT_NAMED 1898-08-07 09:00:00 NR 25.7553 120.376 main 70 64 __________P___ -1 25.7553 120.376 4 2 247
1898216N18131 1898 25 WP MM NOT_NAMED 1898-08-07 12:00:00 NR 25.7176 120.298 main 64 54 __________P___ -1 25.7176 120.298 4 1 247
1898216N18131 1898 25 WP MM NOT_NAMED 1898-08-07 15:00:00 NR 25.6985 120.227 main 54 54 __________P___ -1 25.6985 120.227 4 1 258
1898216N18131 1898 25 WP MM NOT_NAMED 1898-08-07 16:00:00 NR 25.7000 120.200 main 54 45 __________O___ -1 25.7000 120.200 4 2 270
1898216N18131 1898 25 WP MM NOT_NAMED 1898-08-07 18:00:00 NR 25.6983 120.114 main 45 37 __________P___ -1 25.6983 120.114 4 2 276
1898216N18131 1898 25 WP MM NOT_NAMED 1898-08-07 21:00:00 NR 25.7204 119.980 main 37 14 __________P___ -1 25.7204 119.980 4 3 291
1898216N18131 1898 25 WP MM NOT_NAMED 1898-08-08 00:00:00 NR 25.7914 119.848 main 14 0 __________P___ -1 25.7914 119.848 4 3 314
1898216N18131 1898 25 WP MM NOT_NAMED 1898-08-08 03:00:00 NR 25.9332 119.733 main 0 0 __________P___ -1 25.9332 119.733 4 4 328
1898216N18131 1898 25 WP MM NOT_NAMED 1898-08-08 04:00:00 NR 26.0000 119.700 main 0 0 __________O___ -1 26.0000 119.700 4 5 346
1898216N18131 1898 25 WP MM NOT_NAMED 1898-08-08 06:00:00 NR 26.1573 119.667 main 9 0 __________P___ -1 26.1573 119.667 4 6 352
1898216N18131 1898 25 WP MM NOT_NAMED 1898-08-08 09:00:00 NR 26.4624 119.638 main 0 0 __________P___ -1 26.4624 119.638 4 7 356
1898216N18131 1898 25 WP MM NOT_NAMED 1898-08-08 12:00:00 NR 26.8338 119.604 main 0 0 __________P___ -1 26.8338 119.604 4 8 354
1898216N18131 1898 25 WP MM NOT_NAMED 1898-08-08 15:00:00 NR 27.2529 119.536 main 0 0 __________P___ -1 27.2529 119.536 4 9 351
1898216N18131 1898 25 WP MM NOT_NAMED 1898-08-08 16:00:00 NR 27.4000 119.500 main 0 0 __________O___ -1 27.4000 119.500 4 9 345
1898216N18131 1898 25 WP MM NOT_NAMED 1898-08-08 18:00:00 NR 27.7016 119.404 main 0 0 __________P___ -1 27.7016 119.404 4 10 341
1898216N18131 1898 25 WP MM NOT_NAMED 1898-08-08 21:00:00 NR 28.1692 119.207 main 0 0 __________P___ -1 28.1692 119.207 4 10 338
1898216N18131 1898 25 WP MM NOT_NAMED 1898-08-09 00:00:00 NR 28.6496 118.964 main 0 0 __________P___ -1 28.6496 118.964 4 11 335
1898216N18131 1898 25 WP MM NOT_NAMED 1898-08-09 03:00:00 NR 29.1370 118.693 main 0 0 __________P___ -1 29.1370 118.693 4 11 334
1898216N18131 1898 25 WP MM NOT_NAMED 1898-08-09 04:00:00 NR 29.3000 118.600 main 0 __________O___ -1 29.3000 118.600 4 11 334

Digital Typhoon Data and Search

About IBTrACS Database

This database is a web-friendly format of International Best Track Archive for Climate Stewardship (IBTrACS), a global best track data archive curated by NOAA dating back to 1842.

Updated: 2021-10-08